Aviation Digital Data Service (ADDS)

Output produced by METARs form (2125 UTC 20 April 2014)
found at http://aviationweather.gov/adds/metars/
 
KLAX 202040Z 2021/2124 26012KT P6SM SKC 
     FM210400 VRB03KT P6SM SKC 
     FM210900 VRB03KT 2SM BR OVC005 
     FM211600 VRB03KT 4SM BR BKN007 
     FM211800 26010KT 6SM HZ SCT010